createdAt,value
2018-06-16T00:02:04.610Z,35.13
2018-06-16T00:04:32.362Z,33.30
2018-06-16T00:07:01.760Z,32.00
2018-06-16T00:09:29.741Z,33.00
2018-06-16T00:11:57.676Z,39.00
2018-06-16T00:14:25.662Z,31.90
2018-06-16T00:16:53.630Z,27.53
2018-06-16T00:19:21.618Z,25.67
2018-06-16T00:21:49.476Z,27.53
2018-06-16T00:24:17.452Z,33.87
2018-06-16T00:26:45.348Z,31.67
2018-06-16T00:29:13.291Z,25.27
2018-06-16T00:31:41.218Z,21.30
2018-06-16T00:34:09.193Z,25.33
2018-06-16T00:36:44.107Z,22.40
2018-06-16T00:39:11.913Z,18.17
2018-06-16T00:41:39.998Z,17.73
2018-06-16T00:44:08.002Z,16.70
2018-06-16T00:46:35.865Z,18.17
2018-06-16T00:49:03.709Z,10.40
2018-06-16T00:51:31.523Z,14.83
2018-06-16T00:53:59.291Z,12.23
2018-06-16T00:56:27.048Z,9.67
2018-06-16T00:58:54.788Z,11.37
2018-06-16T01:01:22.584Z,12.47
2018-06-16T01:03:50.446Z,12.63
2018-06-16T01:06:19.212Z,17.30
2018-06-16T01:08:46.952Z,13.57
2018-06-16T01:11:14.872Z,13.03
2018-06-16T01:13:42.686Z,14.90
2018-06-16T01:16:10.555Z,17.13
2018-06-16T01:18:38.332Z,15.47
2018-06-16T01:21:06.411Z,14.37
2018-06-16T01:23:34.213Z,13.90
2018-06-16T01:26:01.981Z,10.67
2018-06-16T01:28:29.728Z,13.13
2018-06-16T01:30:57.488Z,13.07
2018-06-16T01:33:25.265Z,16.93
2018-06-16T01:35:53.057Z,14.50
2018-06-16T01:38:20.861Z,9.47
2018-06-16T01:40:48.618Z,12.17
2018-06-16T01:43:16.390Z,16.83
2018-06-16T01:50:41.041Z,14.23
2018-06-16T01:53:08.890Z,12.37
2018-06-16T01:55:36.751Z,15.70
2018-06-16T01:58:04.583Z,19.30
2018-06-16T02:00:32.460Z,15.97
2018-06-16T02:03:00.342Z,19.27
2018-06-16T02:05:28.187Z,15.87
2018-06-16T02:07:56.023Z,21.27
2018-06-16T02:10:23.839Z,16.57
2018-06-16T02:12:51.759Z,16.03
2018-06-16T02:17:52.670Z,17.20
2018-06-16T02:20:20.541Z,14.70
2018-06-16T02:22:48.395Z,10.83
2018-06-16T02:25:17.179Z,12.63
2018-06-16T02:27:44.994Z,15.60
2018-06-16T02:30:12.827Z,12.77
2018-06-16T02:32:40.617Z,10.47
2018-06-16T02:35:08.591Z,15.27
2018-06-16T02:37:36.473Z,9.57
2018-06-16T02:40:04.344Z,12.57
2018-06-16T02:42:32.227Z,13.70
2018-06-16T02:45:00.125Z,11.03
2018-06-16T02:47:27.995Z,7.63
2018-06-16T02:49:55.820Z,12.63
2018-06-16T02:52:23.714Z,12.60
2018-06-16T02:54:51.772Z,12.13
2018-06-16T02:57:19.619Z,10.40
2018-06-16T02:59:47.490Z,7.90
2018-06-16T03:02:15.384Z,9.03
2018-06-16T03:04:43.248Z,10.00
2018-06-16T03:07:11.078Z,6.93
2018-06-16T03:09:39.014Z,9.30
2018-06-16T03:12:06.949Z,10.13
2018-06-16T03:14:34.793Z,10.97
2018-06-16T03:17:30.573Z,8.67
2018-06-16T03:19:58.468Z,8.97
2018-06-16T03:22:26.337Z,12.10
2018-06-16T03:24:55.329Z,11.43
2018-06-16T03:27:23.164Z,7.90
2018-06-16T03:29:52.022Z,13.40
2018-06-16T03:32:19.793Z,10.27
2018-06-16T03:34:48.673Z,9.10
2018-06-16T03:37:16.422Z,8.33
2018-06-16T03:39:45.324Z,10.57
2018-06-16T03:42:13.112Z,10.07
2018-06-16T03:44:41.977Z,12.43
2018-06-16T03:47:09.783Z,10.27
2018-06-16T03:49:37.604Z,12.47
2018-06-16T03:52:05.460Z,11.53
2018-06-16T03:54:34.366Z,12.87
2018-06-16T03:57:02.138Z,12.00
2018-06-16T03:59:29.987Z,17.47
2018-06-16T04:01:57.710Z,12.13
2018-06-16T04:04:25.568Z,16.27
2018-06-16T04:06:53.393Z,13.37
2018-06-16T04:09:21.972Z,11.03
2018-06-16T04:11:49.784Z,11.40
2018-06-16T04:14:17.611Z,16.23
2018-06-16T04:16:45.382Z,13.10
2018-06-16T04:19:13.204Z,12.67
2018-06-16T04:21:42.774Z,12.20
2018-06-16T04:24:10.570Z,11.67
2018-06-16T04:26:38.547Z,12.47
2018-06-16T04:29:06.437Z,14.13
2018-06-16T04:31:34.354Z,13.17
2018-06-16T04:34:02.184Z,15.50
2018-06-16T04:36:31.968Z,16.07
2018-06-16T04:38:59.768Z,15.30
2018-06-16T04:41:27.642Z,11.50
2018-06-16T04:46:21.555Z,17.63
2018-06-16T05:22:20.216Z,17.83
2018-06-16T05:25:01.322Z,17.70
2018-06-16T05:27:29.102Z,18.57
2018-06-16T05:30:24.726Z,17.17
2018-06-16T05:32:52.467Z,19.20
2018-06-16T05:35:20.247Z,22.37
2018-06-16T05:41:22.945Z,17.73
2018-06-16T05:43:50.711Z,12.27
2018-06-16T05:46:44.579Z,11.37
2018-06-16T05:49:12.417Z,18.60
2018-06-16T05:51:43.350Z,19.70
2018-06-16T05:54:11.151Z,14.67
2018-06-16T05:56:40.033Z,14.83
2018-06-16T06:18:43.395Z,16.50
2018-06-16T06:21:32.425Z,15.20
2018-06-16T06:24:00.387Z,13.83
2018-06-16T06:26:28.154Z,19.37
2018-06-16T06:29:10.837Z,11.20
2018-06-16T06:31:38.595Z,14.00
2018-06-16T06:34:06.445Z,14.63
2018-06-16T06:36:34.261Z,16.87
2018-06-16T06:39:03.856Z,18.33
2018-06-16T06:41:31.665Z,15.03
2018-06-16T06:44:09.535Z,11.27
2018-06-16T06:47:01.259Z,15.20
2018-06-16T06:49:29.060Z,14.23
2018-06-16T06:55:31.279Z,11.80
2018-06-16T06:57:59.141Z,11.80
2018-06-16T07:00:39.852Z,14.60
2018-06-16T07:03:07.666Z,11.23
2018-06-16T07:05:35.719Z,15.40
2018-06-16T07:08:03.705Z,17.17
2018-06-16T07:10:31.492Z,12.23
2018-06-16T07:12:59.328Z,12.70
2018-06-16T07:15:27.116Z,13.97
2018-06-16T07:17:54.992Z,13.43
2018-06-16T07:20:22.855Z,13.80
2018-06-16T07:22:50.767Z,18.23
2018-06-16T07:25:19.846Z,13.83
2018-06-16T07:27:47.998Z,15.50
2018-06-16T07:30:15.801Z,14.90
2018-06-16T07:32:44.637Z,22.80
2018-06-16T07:35:12.489Z,18.13
2018-06-16T07:37:40.354Z,17.47
2018-06-16T07:40:08.122Z,18.57
2018-06-16T07:42:35.944Z,22.65
2018-06-16T07:45:04.148Z,22.73
2018-06-16T07:47:31.915Z,22.80
2018-06-16T07:50:05.042Z,22.10
2018-06-16T07:52:32.780Z,19.93
2018-06-16T07:55:01.934Z,20.97
2018-06-16T08:29:56.718Z,14.30
2018-06-16T08:32:33.227Z,28.55
2018-06-16T08:35:01.236Z,17.32
2018-06-16T08:40:05.777Z,20.32
2018-06-16T08:42:33.735Z,23.38
2018-06-16T08:45:06.372Z,19.17
2018-06-16T08:47:34.212Z,17.67
2018-06-16T08:50:02.037Z,17.80
2018-06-16T08:52:29.886Z,15.75
2018-06-16T08:54:57.817Z,18.80
2018-06-16T08:57:25.656Z,16.15
2018-06-16T08:59:53.516Z,21.27
2018-06-16T09:02:21.262Z,18.30
2018-06-16T09:04:49.129Z,17.45
2018-06-16T09:07:16.956Z,20.77
2018-06-16T09:09:44.871Z,16.45
2018-06-16T09:12:12.724Z,14.90
2018-06-16T09:14:40.539Z,18.10
2018-06-16T09:17:08.367Z,13.85
2018-06-16T09:19:36.214Z,14.87
2018-06-16T09:22:04.008Z,16.27
2018-06-16T09:24:31.874Z,17.95
2018-06-16T09:26:59.710Z,16.87
2018-06-16T09:29:27.658Z,18.48
2018-06-16T09:31:55.675Z,17.50
2018-06-16T09:36:56.906Z,14.95
2018-06-16T09:39:24.740Z,14.58
2018-06-16T09:41:52.694Z,16.85
2018-06-16T09:44:20.607Z,17.02
2018-06-16T09:46:48.562Z,18.00
2018-06-16T09:49:16.376Z,13.80
2018-06-16T09:51:44.232Z,15.18
2018-06-16T09:54:12.065Z,17.85
2018-06-16T09:56:51.336Z,17.67
2018-06-16T09:59:19.357Z,12.00
2018-06-16T10:01:47.240Z,13.65
2018-06-16T10:04:15.295Z,13.08
2018-06-16T10:06:43.299Z,9.78
2018-06-16T10:09:11.319Z,12.10
2018-06-16T10:11:40.256Z,10.80
2018-06-16T10:14:08.192Z,11.35
2018-06-16T10:16:36.073Z,12.40
2018-06-16T10:19:04.004Z,10.85
2018-06-16T10:21:31.840Z,13.50
2018-06-16T10:23:59.706Z,12.95
2018-06-16T10:26:27.542Z,16.12
2018-06-16T10:28:55.338Z,13.90
2018-06-16T10:31:23.211Z,14.60
2018-06-16T10:33:51.043Z,13.72
2018-06-16T10:36:18.916Z,10.10
2018-06-16T10:38:46.793Z,11.88
2018-06-16T10:44:29.234Z,14.33
2018-06-16T10:46:57.174Z,14.83
2018-06-16T10:49:25.015Z,10.85
2018-06-16T10:51:52.902Z,9.33
2018-06-16T10:54:20.859Z,10.48
2018-06-16T10:56:48.939Z,10.68
2018-06-16T10:59:16.820Z,11.53
2018-06-16T11:01:44.705Z,11.90
2018-06-16T11:04:12.647Z,11.33
2018-06-16T11:06:40.629Z,10.30
2018-06-16T11:09:10.496Z,11.10
2018-06-16T11:11:38.795Z,8.55
2018-06-16T11:14:09.786Z,9.48
2018-06-16T11:20:47.357Z,9.90
2018-06-16T11:23:15.321Z,11.50
2018-06-16T11:25:43.204Z,14.45
2018-06-16T11:28:11.097Z,14.73
2018-06-16T11:30:38.930Z,12.35
2018-06-16T11:33:06.868Z,8.75
2018-06-16T11:35:34.680Z,8.68
2018-06-16T11:38:02.582Z,11.93
2018-06-16T11:40:30.389Z,8.08
2018-06-16T11:42:58.591Z,12.35
2018-06-16T11:45:26.425Z,8.98
2018-06-16T11:47:54.372Z,7.80
2018-06-16T11:50:22.326Z,10.18
2018-06-16T11:52:50.154Z,6.92
2018-06-16T11:55:19.009Z,6.12
2018-06-16T11:57:47.012Z,9.78
2018-06-16T12:00:14.952Z,10.50
2018-06-16T12:02:42.835Z,8.88
2018-06-16T12:05:25.657Z,6.40
2018-06-16T12:07:53.767Z,7.83
2018-06-16T12:10:21.778Z,6.75
2018-06-16T12:15:15.031Z,10.00
2018-06-16T12:17:42.884Z,6.10
2018-06-16T12:20:10.671Z,4.78
2018-06-16T12:22:38.463Z,6.90
2018-06-16T12:25:06.305Z,7.47
2018-06-16T12:27:34.071Z,6.50
2018-06-16T12:30:01.883Z,5.25
2018-06-16T12:32:29.755Z,5.60
2018-06-16T12:34:57.561Z,14.35
2018-06-16T12:37:25.382Z,8.93
2018-06-16T12:39:53.579Z,12.10
2018-06-16T12:42:21.402Z,9.88
2018-06-16T12:44:49.269Z,13.05
2018-06-16T12:47:17.092Z,13.80
2018-06-16T12:49:44.918Z,14.10
2018-06-16T12:52:12.730Z,10.78
2018-06-16T12:54:40.836Z,9.85
2018-06-16T12:57:08.831Z,7.67
2018-06-16T12:59:36.677Z,14.03
2018-06-16T13:02:04.555Z,11.05
2018-06-16T13:04:32.339Z,13.60
2018-06-16T13:07:00.117Z,8.08
2018-06-16T13:09:27.954Z,5.33
2018-06-16T13:11:55.715Z,9.00
2018-06-16T13:14:23.477Z,8.05
2018-06-16T13:16:52.258Z,8.60
2018-06-16T13:19:20.079Z,5.90
2018-06-16T13:21:47.865Z,8.83
2018-06-16T13:24:15.655Z,7.87
2018-06-16T13:26:51.534Z,6.08
2018-06-16T13:31:59.395Z,5.22
2018-06-16T13:34:27.176Z,6.67
2018-06-16T13:36:54.961Z,5.05
2018-06-16T13:39:23.852Z,7.75
2018-06-16T13:41:51.677Z,7.37
2018-06-16T13:44:19.497Z,6.42
2018-06-16T13:46:47.374Z,5.15
2018-06-16T13:49:15.207Z,4.97
2018-06-16T13:51:43.039Z,5.65
2018-06-16T13:54:10.786Z,22.90
2018-06-16T13:56:38.938Z,9.55
2018-06-16T13:59:07.202Z,3.62
2018-06-16T14:01:35.080Z,2.70
2018-06-16T14:04:03.520Z,7.20
2018-06-16T14:06:31.512Z,4.67
2018-06-16T14:08:59.267Z,4.28
2018-06-16T14:25:04.409Z,5.78
2018-06-16T14:27:32.213Z,7.92
2018-06-16T14:29:59.957Z,7.83
2018-06-16T14:32:53.944Z,5.42
2018-06-16T14:35:21.783Z,5.92
2018-06-16T14:37:49.577Z,4.35
2018-06-16T14:40:17.434Z,6.67
2018-06-16T14:42:45.200Z,5.50
2018-06-16T14:45:13.013Z,8.25
2018-06-16T14:47:40.807Z,4.22
2018-06-16T14:50:08.574Z,4.90
2018-06-16T14:52:36.407Z,7.62
2018-06-16T14:55:04.248Z,8.40
2018-06-16T14:57:32.056Z,3.42
2018-06-16T14:59:59.800Z,6.17
2018-06-16T15:02:27.601Z,6.97
2018-06-16T15:04:55.490Z,2.98
2018-06-16T15:07:23.176Z,6.90
2018-06-16T15:09:51.996Z,7.75
2018-06-16T15:12:20.147Z,5.45
2018-06-16T15:14:48.188Z,5.72
2018-06-16T15:17:16.386Z,6.90
2018-06-16T15:19:44.488Z,10.93
2018-06-16T15:22:12.556Z,3.55
2018-06-16T15:24:40.470Z,2.12
2018-06-16T15:27:09.379Z,3.02
2018-06-16T15:29:46.057Z,1.40
2018-06-16T15:32:13.952Z,3.92
2018-06-16T15:34:41.818Z,1.57
2018-06-16T15:37:09.658Z,4.42
2018-06-16T15:39:37.403Z,3.62
2018-06-16T15:42:06.436Z,3.05
2018-06-16T15:44:34.226Z,4.37
2018-06-16T15:47:01.993Z,5.28
2018-06-16T15:49:29.784Z,3.37
2018-06-16T15:51:57.577Z,4.33
2018-06-16T15:54:25.343Z,4.28
2018-06-16T15:56:53.125Z,3.65
2018-06-16T15:59:20.944Z,6.58
2018-06-16T16:01:48.768Z,1.80
2018-06-16T16:04:16.552Z,2.92
2018-06-16T16:06:44.322Z,2.33
2018-06-16T16:09:14.197Z,1.75
2018-06-16T16:11:41.990Z,7.03
2018-06-16T16:14:10.946Z,5.40
2018-06-16T16:16:38.774Z,4.78
2018-06-16T16:21:32.232Z,2.77
2018-06-16T16:24:00.138Z,9.08
2018-06-16T16:26:28.025Z,4.37
2018-06-16T16:28:56.685Z,4.53
2018-06-16T16:31:24.553Z,5.72
2018-06-16T16:33:52.463Z,12.85
2018-06-16T16:36:20.541Z,1.98
2018-06-16T16:38:48.445Z,4.92
2018-06-16T16:41:16.358Z,3.72
2018-06-16T16:43:44.248Z,3.27
2018-06-16T16:46:12.206Z,5.85
2018-06-16T16:48:40.117Z,3.55
2018-06-16T16:51:08.560Z,3.37
2018-06-16T16:53:36.389Z,1.37
2018-06-16T16:58:35.777Z,3.47
2018-06-16T17:01:11.895Z,4.37
2018-06-16T17:03:39.735Z,6.15
2018-06-16T17:06:07.661Z,3.80
2018-06-16T17:08:35.539Z,2.40
2018-06-16T17:11:03.500Z,6.15
2018-06-16T17:13:31.662Z,5.70
2018-06-16T17:15:59.553Z,3.73
2018-06-16T17:18:27.629Z,3.00
2018-06-16T17:20:55.723Z,4.62
2018-06-16T17:23:23.754Z,2.30
2018-06-16T17:25:51.671Z,1.72
2018-06-16T17:28:19.614Z,3.83
2018-06-16T17:30:47.454Z,4.87
2018-06-16T17:33:15.298Z,5.78
2018-06-16T17:35:43.218Z,4.10
2018-06-16T17:38:11.062Z,3.98
2018-06-16T17:40:38.983Z,4.28
2018-06-16T17:43:07.036Z,5.83
2018-06-16T17:45:34.900Z,4.40
2018-06-16T17:48:02.835Z,10.45
2018-06-16T17:50:30.752Z,7.20
2018-06-16T17:52:58.655Z,4.25
2018-06-16T17:55:26.598Z,6.55
2018-06-16T17:57:54.520Z,5.03
2018-06-16T18:00:22.411Z,3.80
2018-06-16T18:02:50.424Z,1.75
2018-06-16T18:05:18.325Z,1.27
2018-06-16T18:07:46.260Z,3.05
2018-06-16T18:10:14.340Z,4.28
2018-06-16T18:12:42.195Z,3.75
2018-06-16T18:15:10.064Z,11.25
2018-06-16T18:17:38.039Z,3.45
2018-06-16T18:20:06.023Z,4.75
2018-06-16T18:22:33.858Z,7.67
2018-06-16T18:25:01.731Z,6.33
2018-06-16T18:27:29.632Z,3.92
2018-06-16T18:29:57.584Z,2.15
2018-06-16T18:32:25.551Z,2.75
2018-06-16T18:34:53.553Z,3.70
2018-06-16T18:39:46.858Z,2.45
2018-06-16T18:42:14.803Z,5.00
2018-06-16T18:44:42.732Z,3.75
2018-06-16T18:47:10.784Z,2.98
2018-06-16T18:49:38.562Z,2.62
2018-06-16T18:52:06.409Z,4.20
2018-06-16T18:54:34.179Z,3.20
2018-06-16T18:57:03.024Z,2.10
2018-06-16T18:59:30.844Z,3.62
2018-06-16T19:01:59.928Z,2.62
2018-06-16T19:04:27.801Z,5.25
2018-06-16T19:06:55.658Z,1.65
2018-06-16T19:09:23.429Z,5.85
2018-06-16T19:11:52.290Z,4.15
2018-06-16T19:14:20.090Z,3.27
2018-06-16T19:16:47.946Z,1.87
2018-06-16T19:19:15.758Z,1.72
2018-06-16T19:21:43.662Z,5.65
2018-06-16T19:24:11.504Z,3.95
2018-06-16T19:26:39.495Z,5.33
2018-06-16T19:29:07.239Z,5.55
2018-06-16T19:31:35.190Z,2.30
2018-06-16T19:34:03.024Z,3.47
2018-06-16T19:36:30.934Z,5.33
2018-06-16T19:38:58.722Z,2.90
2018-06-16T19:41:26.492Z,2.25
2018-06-16T19:43:55.100Z,6.05
2018-06-16T19:46:23.088Z,2.72
2018-06-16T19:48:50.949Z,8.08
2018-06-16T19:53:47.534Z,1.25
2018-06-16T19:56:15.330Z,3.05
2018-06-16T19:58:43.119Z,4.67
2018-06-16T20:01:10.951Z,4.12
2018-06-16T20:03:38.913Z,4.20
2018-06-16T20:06:06.724Z,6.30
2018-06-16T20:08:34.638Z,9.28
2018-06-16T20:11:02.457Z,3.58
2018-06-16T20:13:30.233Z,4.95
2018-06-16T20:16:00.106Z,2.67
2018-06-16T20:18:27.867Z,3.57
2018-06-16T20:20:55.813Z,6.05
2018-06-16T20:23:23.584Z,4.08
2018-06-16T20:25:51.315Z,4.40
2018-06-16T20:28:19.068Z,4.33
2018-06-16T20:30:46.853Z,2.72
2018-06-16T20:33:15.672Z,3.50
2018-06-16T20:35:43.476Z,5.78
2018-06-16T20:38:11.308Z,5.00
2018-06-16T20:40:39.071Z,5.20
2018-06-16T20:43:06.849Z,5.80
2018-06-16T20:45:34.633Z,1.45
2018-06-16T20:48:02.389Z,4.37
2018-06-16T20:50:30.223Z,3.15
2018-06-16T20:52:57.925Z,3.98
2018-06-16T21:01:44.191Z,4.33
2018-06-16T21:04:12.976Z,1.17
2018-06-16T21:06:40.841Z,2.87
2018-06-16T21:09:10.985Z,6.67
2018-06-16T21:11:38.832Z,6.72
2018-06-16T21:14:06.769Z,1.80
2018-06-16T21:16:34.748Z,5.47
2018-06-16T21:19:02.655Z,4.53
2018-06-16T21:21:30.593Z,6.78
2018-06-16T21:23:58.482Z,4.50
2018-06-16T21:26:26.335Z,5.83
2018-06-16T21:28:55.227Z,6.92
2018-06-16T21:31:23.141Z,3.15
2018-06-16T21:33:51.005Z,6.58
2018-06-16T21:36:19.938Z,5.58
2018-06-16T21:38:47.884Z,3.33
2018-06-16T21:41:15.803Z,4.97
2018-06-16T21:43:43.663Z,2.35
2018-06-16T21:46:11.602Z,4.12
2018-06-16T21:48:39.453Z,3.25
2018-06-16T21:51:20.544Z,4.15
2018-06-16T21:53:48.811Z,4.53
2018-06-16T21:56:16.687Z,3.75
2018-06-16T21:58:44.552Z,3.73
2018-06-16T22:01:12.326Z,6.63
2018-06-16T22:03:41.181Z,2.98
2018-06-16T22:06:09.004Z,5.47
2018-06-16T22:08:37.007Z,2.47
2018-06-16T22:11:04.790Z,3.55
2018-06-16T22:13:32.652Z,2.93
2018-06-16T22:16:00.449Z,5.70
2018-06-16T22:18:28.233Z,2.97
2018-06-16T22:20:56.258Z,5.03
2018-06-16T22:23:24.135Z,4.63
2018-06-16T22:25:51.947Z,0.83
2018-06-16T22:28:19.762Z,3.13
2018-06-16T22:30:47.622Z,2.33
2018-06-16T22:33:15.454Z,1.67
2018-06-16T22:35:46.499Z,2.37
2018-06-16T22:38:14.295Z,4.30
2018-06-16T22:40:42.149Z,2.23
2018-06-16T22:43:10.004Z,4.80
2018-06-16T22:45:37.789Z,3.27
2018-06-16T22:48:05.646Z,3.60
2018-06-16T22:50:37.543Z,3.83
2018-06-16T22:53:06.365Z,3.50
2018-06-16T22:55:34.162Z,4.47
2018-06-16T22:58:37.286Z,2.57
2018-06-16T23:01:05.298Z,2.20
2018-06-16T23:03:33.388Z,3.75
2018-06-16T23:06:01.436Z,3.60
2018-06-16T23:08:29.423Z,4.55
2018-06-16T23:10:57.382Z,3.43
2018-06-16T23:13:25.391Z,5.73
2018-06-16T23:16:01.377Z,4.15
2018-06-16T23:18:29.225Z,4.63
2018-06-16T23:20:57.024Z,4.90
2018-06-16T23:23:24.826Z,4.73
2018-06-16T23:25:52.641Z,4.20
2018-06-16T23:28:20.473Z,3.27
2018-06-16T23:30:48.226Z,3.73
2018-06-16T23:33:15.986Z,3.00
2018-06-16T23:35:43.836Z,4.03
2018-06-16T23:38:11.665Z,3.97
2018-06-16T23:40:39.439Z,4.13
2018-06-16T23:43:07.235Z,3.87
2018-06-16T23:45:35.018Z,5.67
2018-06-16T23:48:02.842Z,5.33
2018-06-16T23:50:30.692Z,4.70
2018-06-16T23:55:28.343Z,6.23
2018-06-16T23:58:03.774Z,2.60
